Kaami — C6VO9 — position and weather

sailwx.info

Track history (hours):
 
Tides and Currents Weather Stations Pressure Air Temp Water Temp Dewpoint Dewpoint Depression Visibility Wind Speed Wind Dir Waves Ship Positions

Kaami

Last reported at 2016-Feb-06 15:29 UTC. Time now 2016-Feb-06 15:45 UTC.
Position N 55°59' E 012°44'.

Length 90 m; draft 5.6 m.

Type: Cargo ship. MMSI: 308542000.

Date/timePositionNaut miles runAvg speedWind from/ knotsBaromVisibWave heightAir tempDewpointWater temp
2016-Feb-06 15:29N 55°59' E 012°44'0 0.0
2016-Feb-06 14:32N 55°59' E 012°44'0 0.0
2016-Feb-06 13:32N 55°59' E 012°44'0 0.0
2016-Feb-06 12:32N 55°59' E 012°44'0 0.0
2016-Feb-06 11:32N 55°59' E 012°44'0 0.0
2016-Feb-06 10:32N 55°59' E 012°44'0 0.0
2016-Feb-06 09:32N 55°59' E 012°44'0 0.0
2016-Feb-06 08:32N 55°59' E 012°44'0 0.0
2016-Feb-06 07:32N 55°59' E 012°44'0 0.0
2016-Feb-06 06:32N 55°59' E 012°44'0 0.0
2016-Feb-06 05:32N 55°59' E 012°44'0 0.0
2016-Feb-06 04:32N 55°59' E 012°44'0 0.0
2016-Feb-06 03:31N 55°59' E 012°44'0 0.0
2016-Feb-06 02:31N 55°59' E 012°44'0 0.0
2016-Feb-06 01:31N 55°59' E 012°44'0 0.0
2016-Feb-06 00:31N 55°59' E 012°44'0 0.0
2016-Feb-05 23:31N 55°59' E 012°44'0 0.0
2016-Feb-05 22:31N 55°59' E 012°44'0 0.0
2016-Feb-05 21:31N 55°59' E 012°44'0 0.0
2016-Feb-05 20:31N 55°59' E 012°44'0 0.0
2016-Feb-05 19:31N 55°59' E 012°44'0 0.0
2016-Feb-05 18:28N 55°59' E 012°44'0 0.0
2016-Feb-05 17:31N 55°59' E 012°44'0 0.0
2016-Feb-05 16:31N 55°59' E 012°44'0 0.0
2016-Feb-05 15:31N 55°59' E 012°44'0 0.0
2016-Feb-05 14:31N 55°59' E 012°44'0 0.0
2016-Feb-05 13:31N 55°59' E 012°44'0 0.0
2016-Feb-05 12:28N 55°59' E 012°44'0 0.0
2016-Feb-05 11:31N 55°59' E 012°44'4 4.5
2016-Feb-05 10:34N 56°02' E 012°39'10 9.2
2016-Feb-05 09:30N 56°09' E 012°26'39 9.8
2016-Feb-05 05:32N 56°43' E 011°52'1110.9
2016-Feb-05 04:33N 56°53' E 011°46'1110.8
2016-Feb-05 03:33N 57°03' E 011°40'1110.7
2016-Feb-05 02:34N 57°13' E 011°33'1110.8
2016-Feb-05 01:33N 57°24' E 011°26'1010.1
2016-Feb-05 00:33N 57°32' E 011°15'1010.4
2016-Feb-04 23:33N 57°39' E 011°01'1210.5
2016-Feb-04 22:25N 57°47' E 010°44'910.5
2016-Feb-04 21:33N 57°46' E 010°27'91 9.8
2016-Feb-04 12:19N 56°56' E 008°08'188 7.9
2016-Feb-03 12:31N 54°16' E 005°12'199 8.3
2016-Feb-02 12:32N 51°34' E 001°60'8 8.4
2016-Feb-02 11:34N 51°26' E 001°59'9 8.5
2016-Feb-02 10:34N 51°18' E 001°54'1010.2
2016-Feb-02 09:33N 51°09' E 001°44'1010.4
2016-Feb-02 08:33N 51°01' E 001°34'1110.4
2016-Feb-02 07:28N 50°52' E 001°25'250 9.6
2016-Feb-01 05:20N 49°02' W 004°25'33 8.7
2016-Feb-01 01:33N 48°43' W 005°05'  
Track history (hours):
 
Tides and Currents Weather Stations Pressure Air Temp Water Temp Dewpoint Dewpoint Depression Visibility Wind Speed Wind Dir Waves Ship Positions

Kaami

Last reported at 2016-Feb-06 15:29 UTC. Time now 2016-Feb-06 15:45 UTC.
Position N 55°59' E 012°44'.

Length 90 m; draft 5.6 m.

Type: Cargo ship. MMSI: 308542000.

Date/timePositionNaut miles runAvg speedWind from/ knotsBaromVisibWave heightAir tempDewpointWater temp
2016-Feb-06 15:29N 55°59' E 012°44'0 0.0
2016-Feb-06 14:32N 55°59' E 012°44'0 0.0
2016-Feb-06 13:32N 55°59' E 012°44'0 0.0
2016-Feb-06 12:32N 55°59' E 012°44'0 0.0
2016-Feb-06 11:32N 55°59' E 012°44'0 0.0
2016-Feb-06 10:32N 55°59' E 012°44'0 0.0
2016-Feb-06 09:32N 55°59' E 012°44'0 0.0
2016-Feb-06 08:32N 55°59' E 012°44'0 0.0
2016-Feb-06 07:32N 55°59' E 012°44'0 0.0
2016-Feb-06 06:32N 55°59' E 012°44'0 0.0
2016-Feb-06 05:32N 55°59' E 012°44'0 0.0
2016-Feb-06 04:32N 55°59' E 012°44'0 0.0
2016-Feb-06 03:31N 55°59' E 012°44'0 0.0
2016-Feb-06 02:31N 55°59' E 012°44'0 0.0
2016-Feb-06 01:31N 55°59' E 012°44'0 0.0
2016-Feb-06 00:31N 55°59' E 012°44'0 0.0
2016-Feb-05 23:31N 55°59' E 012°44'0 0.0
2016-Feb-05 22:31N 55°59' E 012°44'0 0.0
2016-Feb-05 21:31N 55°59' E 012°44'0 0.0
2016-Feb-05 20:31N 55°59' E 012°44'0 0.0
2016-Feb-05 19:31N 55°59' E 012°44'0 0.0
2016-Feb-05 18:28N 55°59' E 012°44'0 0.0
2016-Feb-05 17:31N 55°59' E 012°44'0 0.0
2016-Feb-05 16:31N 55°59' E 012°44'0 0.0
2016-Feb-05 15:31N 55°59' E 012°44'0 0.0
2016-Feb-05 14:31N 55°59' E 012°44'0 0.0
2016-Feb-05 13:31N 55°59' E 012°44'0 0.0
2016-Feb-05 12:28N 55°59' E 012°44'0 0.0
2016-Feb-05 11:31N 55°59' E 012°44'4 4.5
2016-Feb-05 10:34N 56°02' E 012°39'10 9.2
2016-Feb-05 09:30N 56°09' E 012°26'39 9.8
2016-Feb-05 05:32N 56°43' E 011°52'1110.9
2016-Feb-05 04:33N 56°53' E 011°46'1110.8
2016-Feb-05 03:33N 57°03' E 011°40'1110.7
2016-Feb-05 02:34N 57°13' E 011°33'1110.8
2016-Feb-05 01:33N 57°24' E 011°26'1010.1
2016-Feb-05 00:33N 57°32' E 011°15'1010.4
2016-Feb-04 23:33N 57°39' E 011°01'1210.5
2016-Feb-04 22:25N 57°47' E 010°44'910.5
2016-Feb-04 21:33N 57°46' E 010°27'91 9.8
2016-Feb-04 12:19N 56°56' E 008°08'188 7.9
2016-Feb-03 12:31N 54°16' E 005°12'199 8.3
2016-Feb-02 12:32N 51°34' E 001°60'8 8.4
2016-Feb-02 11:34N 51°26' E 001°59'9 8.5
2016-Feb-02 10:34N 51°18' E 001°54'1010.2
2016-Feb-02 09:33N 51°09' E 001°44'1010.4
2016-Feb-02 08:33N 51°01' E 001°34'1110.4
2016-Feb-02 07:28N 50°52' E 001°25'250 9.6
2016-Feb-01 05:20N 49°02' W 004°25'33 8.7
2016-Feb-01 01:33N 48°43' W 005°05'  

Dump ship's entire track history